Time;durP1;ratioP1;P1;durP2;ratioP2;P2;SDS_P1;SDS_P2;PMS_P1;PMS_P2;Temp;Humidity;BMP_temperature;BMP_pressure;BME280_temperature;BME280_humidity;BME280_pressure;Samples;Min_cycle;Max_cycle;Signal;HPM_P1;HPM_P2
2022/04/14 00:01:58;;;;;;;11.52;7.13;;;;;;;;;;5124721;27;20534;-74
2022/04/14 00:04:24;;;;;;;8.48;6.57;;;;;;;;;;5127603;27;20042;-75
2022/04/14 00:06:50;;;;;;;7.55;6.07;;;;;;;;;;5090387;27;20114;-76
2022/04/14 00:09:15;;;;;;;9.23;6.18;;;;;;;;;;5110141;27;20023;-75
2022/04/14 00:11:41;;;;;;;7.75;5.95;;;;;;;;;;5123971;27;20046;-75
2022/04/14 00:14:06;;;;;;;10.45;6.15;;;;;;;;;;5133120;27;20137;-76
2022/04/14 00:16:31;;;;;;;8.57;5.50;;;;;;;;;;5126470;27;20106;-75
2022/04/14 00:18:57;;;;;;;7.40;5.82;;;;;;;;;;5147404;27;20054;-75
2022/04/14 00:21:22;;;;;;;9.15;5.75;;;;;;;;;;5146522;27;20019;-75
2022/04/14 00:23:47;;;;;;;7.05;5.88;;;;;;;;;;5142852;27;20038;-75
2022/04/14 00:26:13;;;;;;;8.63;5.47;;;;;;;;;;5122918;27;20083;-76
2022/04/14 00:28:38;;;;;;;8.27;5.78;;;;;;;;;;5104667;27;20038;-75
2022/04/14 00:31:04;;;;;;;8.52;6.13;;;;;;;;;;5113309;27;20846;-75
2022/04/14 00:33:29;;;;;;;6.90;5.60;;;;;;;;;;5145948;27;20030;-75
2022/04/14 00:35:55;;;;;;;10.80;6.38;;;;;;;;;;5112298;27;20035;-75
2022/04/14 00:38:20;;;;;;;9.50;5.57;;;;;;;;;;5147458;27;20112;-75
2022/04/14 00:40:47;;;;;;;10.40;6.15;;;;;;;;;;5125580;27;20091;-75
2022/04/14 00:43:12;;;;;;;9.60;6.32;;;;;;;;;;5143606;27;20045;-76
2022/04/14 00:45:37;;;;;;;8.35;5.25;;;;;;;;;;5145407;27;20422;-76
2022/04/14 00:48:03;;;;;;;9.45;5.90;;;;;;;;;;5128654;27;20038;-75
2022/04/14 00:50:28;;;;;;;8.88;6.47;;;;;;;;;;5127986;27;20029;-75
2022/04/14 00:52:54;;;;;;;10.35;6.72;;;;;;;;;;5111640;27;20088;-76
2022/04/14 00:55:20;;;;;;;9.38;7.00;;;;;;;;;;5148566;27;20019;-75
2022/04/14 00:57:45;;;;;;;10.27;6.88;;;;;;;;;;5120431;27;20406;-75
2022/04/14 01:00:11;;;;;;;7.55;6.00;;;;;;;;;;5127693;27;20091;-75
2022/04/14 01:02:36;;;;;;;8.23;6.32;;;;;;;;;;5143402;27;20027;-74
2022/04/14 01:05:02;;;;;;;10.60;6.50;;;;;;;;;;5108857;27;20023;-76
2022/04/14 01:07:29;;;;;;;12.55;7.38;;;;;;;;;;5124844;27;20043;-75
2022/04/14 01:09:55;;;;;;;12.32;7.13;;;;;;;;;;5089482;27;20030;-75
2022/04/14 01:12:21;;;;;;;9.70;7.10;;;;;;;;;;5100554;27;20450;-75
2022/04/14 01:14:46;;;;;;;13.57;8.32;;;;;;;;;;5089596;27;20053;-76
2022/04/14 01:17:12;;;;;;;13.52;8.43;;;;;;;;;;5142717;27;20026;-77
2022/04/14 01:19:37;;;;;;;11.43;8.18;;;;;;;;;;5114660;27;20023;-75
2022/04/14 01:22:20;;;;;;;11.77;7.78;;;;;;;;;;5089222;27;20144;-74
2022/04/14 01:24:46;;;;;;;11.63;8.75;;;;;;;;;;5108180;27;20026;-75
2022/04/14 01:27:11;;;;;;;12.63;8.77;;;;;;;;;;5122156;27;20019;-74
2022/04/14 01:29:37;;;;;;;11.18;8.68;;;;;;;;;;5141325;27;20522;-74
2022/04/14 01:32:02;;;;;;;12.45;9.10;;;;;;;;;;5126036;27;20429;-75
2022/04/14 01:34:30;;;;;;;12.50;8.90;;;;;;;;;;5145948;27;20461;-75
2022/04/14 01:36:55;;;;;;;13.18;8.45;;;;;;;;;;5134027;27;20027;-75
2022/04/14 01:39:21;;;;;;;10.20;8.35;;;;;;;;;;5090405;27;20087;-75
2022/04/14 01:41:46;;;;;;;11.90;8.57;;;;;;;;;;5119578;27;20023;-74
2022/04/14 01:44:11;;;;;;;14.30;8.57;;;;;;;;;;5122577;27;20023;-76
2022/04/14 01:46:37;;;;;;;13.00;9.00;;;;;;;;;;5133498;27;20071;-75
2022/04/14 01:49:03;;;;;;;11.55;8.43;;;;;;;;;;5115296;27;20026;-75
2022/04/14 01:51:28;;;;;;;11.38;8.20;;;;;;;;;;5124497;27;20023;-76
2022/04/14 01:53:54;;;;;;;11.15;8.10;;;;;;;;;;5124135;27;20500;-75
2022/04/14 01:56:21;;;;;;;12.95;8.80;;;;;;;;;;5100612;27;20055;-76
2022/04/14 01:58:46;;;;;;;10.70;7.97;;;;;;;;;;5119039;27;20038;-76
2022/04/14 02:01:11;;;;;;;12.93;8.88;;;;;;;;;;5104655;27;20063;-76
2022/04/14 02:03:37;;;;;;;10.43;8.82;;;;;;;;;;5087139;27;20023;-75
2022/04/14 02:06:03;;;;;;;12.25;8.43;;;;;;;;;;5090784;27;20336;-76
2022/04/14 02:08:28;;;;;;;10.00;8.05;;;;;;;;;;5142579;27;20015;-76
2022/04/14 02:10:53;;;;;;;11.55;7.80;;;;;;;;;;5119286;27;20058;-75
2022/04/14 02:13:19;;;;;;;11.82;8.20;;;;;;;;;;5141133;27;20030;-75
2022/04/14 02:15:44;;;;;;;13.65;7.97;;;;;;;;;;5142524;27;20573;-75
2022/04/14 02:18:09;;;;;;;13.00;7.50;;;;;;;;;;5124601;27;20622;-75
2022/04/14 02:20:35;;;;;;;10.80;7.38;;;;;;;;;;5107558;27;20022;-76
2022/04/14 02:23:00;;;;;;;10.95;7.85;;;;;;;;;;5124003;27;20049;-76
2022/04/14 02:25:26;;;;;;;9.23;7.25;;;;;;;;;;5123708;27;20665;-75
2022/04/14 02:27:51;;;;;;;10.05;7.00;;;;;;;;;;5116073;27;20102;-76
2022/04/14 02:30:17;;;;;;;12.80;7.15;;;;;;;;;;5126292;27;20517;-75
2022/04/14 02:32:43;;;;;;;11.30;6.65;;;;;;;;;;5115858;27;20356;-75
2022/04/14 02:35:09;;;;;;;8.95;5.90;;;;;;;;;;5108681;27;20011;-75
2022/04/14 02:37:34;;;;;;;8.43;5.85;;;;;;;;;;5129925;27;20418;-76
2022/04/14 02:39:59;;;;;;;10.77;5.88;;;;;;;;;;5104347;27;20595;-76
2022/04/14 02:42:25;;;;;;;9.38;5.45;;;;;;;;;;5116989;27;20126;-74
2022/04/14 02:44:50;;;;;;;10.88;6.22;;;;;;;;;;5107296;27;20366;-75
2022/04/14 02:47:15;;;;;;;10.88;6.30;;;;;;;;;;5123637;27;20027;-77
2022/04/14 02:49:41;;;;;;;11.75;6.07;;;;;;;;;;5131790;27;20041;-75
2022/04/14 02:52:06;;;;;;;9.60;6.43;;;;;;;;;;5108752;27;20061;-75
2022/04/14 02:54:37;;;;;;;10.52;6.50;;;;;;;;;;5107479;27;20129;-75
2022/04/14 02:57:03;;;;;;;9.90;6.50;;;;;;;;;;5102410;27;20541;-74
2022/04/14 02:59:28;;;;;;;10.82;6.68;;;;;;;;;;5105574;27;20047;-75
2022/04/14 03:01:53;;;;;;;9.20;6.50;;;;;;;;;;5089556;27;20508;-75
2022/04/14 03:04:19;;;;;;;12.05;7.38;;;;;;;;;;5108571;27;20074;-75
2022/04/14 03:06:44;;;;;;;12.80;7.22;;;;;;;;;;5105718;27;20031;-76
2022/04/14 03:09:09;;;;;;;11.25;7.40;;;;;;;;;;5090863;27;20023;-76
2022/04/14 03:11:35;;;;;;;12.90;8.18;;;;;;;;;;5087545;27;20372;-75
2022/04/14 03:14:01;;;;;;;13.13;7.72;;;;;;;;;;5104693;27;20214;-76
2022/04/14 03:16:26;;;;;;;11.30;7.63;;;;;;;;;;5116983;27;20031;-75
2022/04/14 03:18:51;;;;;;;14.30;8.90;;;;;;;;;;5146291;27;20049;-75
2022/04/14 03:21:17;;;;;;;16.02;8.68;;;;;;;;;;5100578;27;20385;-74
2022/04/14 03:23:42;;;;;;;13.27;8.30;;;;;;;;;;5118831;27;20050;-75
2022/04/14 03:26:08;;;;;;;15.65;8.93;;;;;;;;;;5098436;27;20034;-76
2022/04/14 03:28:33;;;;;;;12.57;8.07;;;;;;;;;;5098354;27;20045;-75
2022/04/14 03:30:59;;;;;;;12.38;8.82;;;;;;;;;;5127044;27;20031;-75
2022/04/14 03:33:24;;;;;;;13.60;8.65;;;;;;;;;;5128352;27;20031;-75
2022/04/14 03:35:49;;;;;;;15.43;9.02;;;;;;;;;;5109979;27;20022;-74
2022/04/14 03:38:14;;;;;;;15.23;8.57;;;;;;;;;;5129018;27;20030;-76
2022/04/14 03:40:40;;;;;;;11.05;8.32;;;;;;;;;;5124432;27;20380;-75
2022/04/14 03:43:05;;;;;;;16.23;9.25;;;;;;;;;;5127706;27;20027;-75
2022/04/14 03:45:30;;;;;;;12.55;8.15;;;;;;;;;;5092261;27;20060;-74
2022/04/14 03:47:55;;;;;;;16.80;10.27;;;;;;;;;;5105573;27;20019;-75
2022/04/14 03:50:21;;;;;;;15.25;10.15;;;;;;;;;;5107763;27;20019;-75
2022/04/14 03:52:46;;;;;;;15.88;10.13;;;;;;;;;;5088188;27;20068;-76
2022/04/14 03:55:11;;;;;;;14.68;9.25;;;;;;;;;;5091609;27;20031;-75
2022/04/14 03:57:37;;;;;;;17.15;10.25;;;;;;;;;;5099591;27;20039;-75
2022/04/14 04:00:03;;;;;;;13.40;9.40;;;;;;;;;;5116019;27;20460;-76
2022/04/14 04:02:28;;;;;;;18.55;10.52;;;;;;;;;;5127331;27;20091;-76
2022/04/14 04:04:53;;;;;;;16.75;11.13;;;;;;;;;;5143708;27;20035;-76
2022/04/14 04:07:18;;;;;;;16.70;9.93;;;;;;;;;;5121991;27;20026;-76
2022/04/14 04:09:44;;;;;;;15.57;10.07;;;;;;;;;;5118458;27;20025;-76
2022/04/14 04:12:09;;;;;;;17.63;9.93;;;;;;;;;;5102283;27;20029;-75
2022/04/14 04:14:35;;;;;;;17.40;10.93;;;;;;;;;;5112327;27;20060;-76
2022/04/14 04:17:00;;;;;;;15.93;10.13;;;;;;;;;;5104663;27;20026;-76
2022/04/14 04:19:25;;;;;;;16.48;11.10;;;;;;;;;;5145305;27;20019;-76
2022/04/14 04:21:51;;;;;;;15.00;10.70;;;;;;;;;;5113596;27;20058;-76
2022/04/14 04:24:16;;;;;;;20.10;10.88;;;;;;;;;;5089330;27;20031;-75
2022/04/14 04:26:41;;;;;;;15.02;10.50;;;;;;;;;;5137701;27;20014;-77
2022/04/14 04:29:07;;;;;;;14.68;10.52;;;;;;;;;;5121755;27;20251;-75
2022/04/14 04:31:32;;;;;;;17.30;10.65;;;;;;;;;;5104910;27;20705;-75
2022/04/14 04:33:57;;;;;;;17.75;11.57;;;;;;;;;;5128941;27;20471;-76
2022/04/14 04:36:23;;;;;;;20.33;12.43;;;;;;;;;;5124887;27;20233;-76
2022/04/14 04:38:49;;;;;;;16.48;12.02;;;;;;;;;;5108727;27;20019;-75
2022/04/14 04:41:14;;;;;;;16.48;12.60;;;;;;;;;;5121310;27;20073;-76
2022/04/14 04:43:40;;;;;;;21.48;13.05;;;;;;;;;;5123919;27;20202;-75
2022/04/14 04:46:05;;;;;;;18.48;11.77;;;;;;;;;;5122250;27;20030;-76
2022/04/14 04:48:30;;;;;;;19.50;12.73;;;;;;;;;;5116282;27;20126;-76
2022/04/14 04:50:55;;;;;;;17.65;12.02;;;;;;;;;;5142761;27;20098;-76
2022/04/14 04:53:21;;;;;;;20.15;12.35;;;;;;;;;;5144049;27;20018;-75
2022/04/14 04:55:46;;;;;;;17.58;14.38;;;;;;;;;;5140748;27;20455;-76
2022/04/14 04:58:11;;;;;;;18.42;12.70;;;;;;;;;;5141400;27;20199;-76
2022/04/14 05:00:36;;;;;;;18.92;12.63;;;;;;;;;;5122661;27;20126;-76
2022/04/14 05:03:06;;;;;;;17.50;11.75;;;;;;;;;;5124001;27;20114;-77
2022/04/14 05:05:32;;;;;;;22.15;12.30;;;;;;;;;;5108973;27;20031;-78
2022/04/14 05:07:57;;;;;;;17.63;11.85;;;;;;;;;;5093856;27;20102;-77
2022/04/14 05:10:26;;;;;;;18.65;12.80;;;;;;;;;;5105732;27;20054;-76
2022/04/14 05:12:53;;;;;;;17.90;12.65;;;;;;;;;;5084325;27;20019;-76
2022/04/14 05:15:18;;;;;;;20.15;12.68;;;;;;;;;;5110485;27;20045;-76
2022/04/14 05:17:43;;;;;;;19.15;12.20;;;;;;;;;;5127442;27;20023;-76
2022/04/14 05:20:09;;;;;;;18.50;12.65;;;;;;;;;;5107841;27;20458;-75
2022/04/14 05:22:34;;;;;;;20.45;12.40;;;;;;;;;;5124627;27;20049;-76
2022/04/14 05:25:02;;;;;;;17.00;12.30;;;;;;;;;;5108552;27;20031;-76
2022/04/14 05:27:27;;;;;;;17.23;13.05;;;;;;;;;;5114462;27;20103;-76
2022/04/14 05:29:53;;;;;;;18.90;12.07;;;;;;;;;;5106274;27;20454;-74
2022/04/14 05:32:18;;;;;;;22.58;13.45;;;;;;;;;;5105202;27;20023;-76
2022/04/14 05:34:43;;;;;;;18.80;11.68;;;;;;;;;;5107098;27;20030;-77
2022/04/14 05:37:09;;;;;;;20.50;13.02;;;;;;;;;;5105052;27;20130;-76
2022/04/14 05:39:34;;;;;;;16.75;12.68;;;;;;;;;;5123863;27;20220;-76
2022/04/14 05:41:59;;;;;;;18.33;13.00;;;;;;;;;;5083598;27;20027;-76
2022/04/14 05:44:25;;;;;;;18.65;12.63;;;;;;;;;;5103630;27;20031;-76
2022/04/14 05:46:50;;;;;;;20.05;13.75;;;;;;;;;;5088953;27;20110;-75
2022/04/14 05:49:15;;;;;;;22.05;13.07;;;;;;;;;;5086332;27;20038;-77
2022/04/14 05:51:41;;;;;;;20.48;13.63;;;;;;;;;;5110072;27;20122;-76
2022/04/14 05:54:06;;;;;;;22.38;13.55;;;;;;;;;;5106547;27;20023;-75
2022/04/14 05:56:32;;;;;;;21.45;12.93;;;;;;;;;;5117193;27;20026;-76
2022/04/14 05:59:00;;;;;;;21.55;13.40;;;;;;;;;;5088555;27;20061;-77
2022/04/14 06:01:25;;;;;;;20.20;12.95;;;;;;;;;;5124343;27;20027;-75
2022/04/14 06:03:51;;;;;;;21.10;13.35;;;;;;;;;;5140839;27;20019;-74
2022/04/14 06:06:16;;;;;;;20.08;13.45;;;;;;;;;;5102269;27;20099;-74
2022/04/14 06:08:43;;;;;;;18.40;13.30;;;;;;;;;;5086633;27;20027;-74
2022/04/14 06:11:09;;;;;;;19.45;13.20;;;;;;;;;;5098589;27;20110;-77
2022/04/14 06:13:34;;;;;;;21.30;13.43;;;;;;;;;;5102360;27;20025;-77
2022/04/14 06:15:59;;;;;;;24.60;13.27;;;;;;;;;;5106496;27;20067;-74
2022/04/14 06:18:25;;;;;;;19.13;13.45;;;;;;;;;;5105150;27;20385;-75
2022/04/14 06:20:53;;;;;;;20.70;12.90;;;;;;;;;;5126108;27;20484;-75
2022/04/14 06:23:19;;;;;;;21.27;12.82;;;;;;;;;;5146095;27;20215;-75
2022/04/14 06:25:50;;;;;;;22.95;11.45;;;;;;;;;;5121637;27;20248;-75
2022/04/14 06:28:17;;;;;;;21.23;12.25;;;;;;;;;;5105474;27;20414;-75
2022/04/14 06:30:42;;;;;;;21.50;11.73;;;;;;;;;;5109984;27;20015;-75
2022/04/14 06:33:07;;;;;;;16.17;11.30;;;;;;;;;;5119741;27;20438;-76
2022/04/14 06:35:33;;;;;;;18.38;11.63;;;;;;;;;;5108724;27;20105;-77
2022/04/14 06:37:59;;;;;;;18.20;10.93;;;;;;;;;;5106869;27;20023;-74
2022/04/14 06:40:25;;;;;;;19.55;10.25;;;;;;;;;;5118539;27;20563;-76
2022/04/14 06:42:50;;;;;;;21.33;10.82;;;;;;;;;;5115173;27;20104;-76
2022/04/14 06:45:16;;;;;;;18.23;10.77;;;;;;;;;;5112090;27;20540;-76
2022/04/14 06:47:41;;;;;;;17.95;9.82;;;;;;;;;;5127473;27;20018;-77
2022/04/14 06:50:07;;;;;;;17.60;9.63;;;;;;;;;;5136952;27;20098;-76
2022/04/14 06:52:32;;;;;;;13.68;9.52;;;;;;;;;;5124851;27;20449;-74
2022/04/14 06:54:58;;;;;;;16.20;8.10;;;;;;;;;;5111617;27;20353;-75
2022/04/14 06:57:24;;;;;;;13.48;7.82;;;;;;;;;;5091557;27;20130;-73
2022/04/14 06:59:50;;;;;;;15.70;8.52;;;;;;;;;;5125313;27;20101;-74
2022/04/14 07:02:16;;;;;;;18.17;8.63;;;;;;;;;;5109568;27;20111;-75
2022/04/14 07:04:41;;;;;;;16.25;8.60;;;;;;;;;;5109235;27;20019;-74
2022/04/14 07:07:06;;;;;;;13.70;8.23;;;;;;;;;;5125218;27;20076;-74
2022/04/14 07:09:34;;;;;;;16.52;7.90;;;;;;;;;;5130896;27;20156;-75
2022/04/14 07:12:01;;;;;;;15.63;8.30;;;;;;;;;;5104108;27;20469;-75
2022/04/14 07:14:28;;;;;;;16.38;7.68;;;;;;;;;;5106674;27;20029;-74
2022/04/14 07:16:54;;;;;;;14.07;8.02;;;;;;;;;;5098995;27;20068;-74
2022/04/14 07:19:19;;;;;;;11.98;6.82;;;;;;;;;;5126920;27;20478;-74
2022/04/14 07:21:44;;;;;;;13.20;7.70;;;;;;;;;;5126325;27;20046;-73
2022/04/14 07:24:10;;;;;;;14.57;7.57;;;;;;;;;;5146904;27;20034;-75
2022/04/14 07:26:36;;;;;;;12.82;7.65;;;;;;;;;;5123569;27;20075;-74
2022/04/14 07:29:02;;;;;;;13.90;7.72;;;;;;;;;;5126206;27;20022;-75
2022/04/14 07:31:28;;;;;;;11.70;7.18;;;;;;;;;;5126155;27;20074;-74
2022/04/14 07:33:53;;;;;;;14.95;6.90;;;;;;;;;;5127442;27;20019;-75
2022/04/14 07:36:21;;;;;;;14.85;7.07;;;;;;;;;;5115743;27;20026;-75
2022/04/14 07:38:46;;;;;;;15.85;7.03;;;;;;;;;;5107618;27;20019;-74
2022/04/14 07:41:12;;;;;;;13.25;6.97;;;;;;;;;;5100217;27;20039;-74
2022/04/14 07:43:37;;;;;;;13.52;7.28;;;;;;;;;;5104477;27;20084;-74
2022/04/14 07:46:03;;;;;;;10.40;6.80;;;;;;;;;;5124104;27;20041;-74
2022/04/14 07:48:29;;;;;;;14.18;7.45;;;;;;;;;;5115283;27;20050;-75
2022/04/14 07:50:54;;;;;;;11.95;6.75;;;;;;;;;;5110710;27;20049;-75
2022/04/14 07:53:19;;;;;;;13.50;7.10;;;;;;;;;;5124357;27;20034;-75
2022/04/14 07:55:45;;;;;;;12.40;7.97;;;;;;;;;;5104965;27;20356;-75
2022/04/14 07:58:10;;;;;;;15.65;7.38;;;;;;;;;;5121710;27;20034;-74
2022/04/14 08:00:37;;;;;;;11.60;6.85;;;;;;;;;;5124675;27;20113;-74
2022/04/14 08:03:03;;;;;;;13.77;8.05;;;;;;;;;;5126957;27;20034;-76
2022/04/14 08:05:33;;;;;;;12.63;7.07;;;;;;;;;;5124237;27;20023;-73
2022/04/14 08:07:59;;;;;;;10.82;6.50;;;;;;;;;;5126546;27;20121;-75
2022/04/14 08:10:25;;;;;;;10.70;6.93;;;;;;;;;;5122872;27;20307;-74
2022/04/14 08:12:50;;;;;;;9.70;5.80;;;;;;;;;;5120108;27;20079;-76
2022/04/14 08:15:16;;;;;;;10.02;6.30;;;;;;;;;;5109454;27;20031;-76
2022/04/14 08:17:42;;;;;;;11.35;6.15;;;;;;;;;;5120321;27;20385;-75
2022/04/14 08:20:12;;;;;;;10.43;6.57;;;;;;;;;;5128667;27;20020;-76
2022/04/14 08:22:44;;;;;;;10.00;5.97;;;;;;;;;;5107165;27;20047;-75
2022/04/14 08:25:10;;;;;;;9.88;5.55;;;;;;;;;;5126070;27;20491;-75
2022/04/14 08:27:36;;;;;;;9.65;5.50;;;;;;;;;;5087147;27;20023;-76
2022/04/14 08:30:01;;;;;;;11.55;5.55;;;;;;;;;;5143469;27;20337;-76
2022/04/14 08:32:26;;;;;;;10.02;5.63;;;;;;;;;;5094024;27;20513;-75
2022/04/14 08:34:51;;;;;;;8.13;5.28;;;;;;;;;;5133902;27;20362;-75
2022/04/14 08:37:17;;;;;;;9.20;5.40;;;;;;;;;;5104574;27;20099;-75
2022/04/14 08:39:43;;;;;;;8.75;5.55;;;;;;;;;;5106131;27;20027;-74
2022/04/14 08:42:25;;;;;;;9.57;5.70;;;;;;;;;;5101536;27;20076;-75
2022/04/14 08:44:51;;;;;;;7.47;5.43;;;;;;;;;;5107064;27;20099;-74
2022/04/14 08:47:18;;;;;;;8.95;5.72;;;;;;;;;;5125087;27;20669;-73
2022/04/14 08:49:48;;;;;;;8.93;6.00;;;;;;;;;;5126636;27;20019;-74
2022/04/14 08:52:15;;;;;;;7.50;5.47;;;;;;;;;;5124920;27;20030;-73
2022/04/14 08:54:43;;;;;;;8.98;5.50;;;;;;;;;;5110022;27;20043;-73
2022/04/14 08:57:12;;;;;;;9.73;5.90;;;;;;;;;;5140296;27;20015;-74
2022/04/14 08:59:37;;;;;;;7.50;5.78;;;;;;;;;;5104809;27;20047;-74
2022/04/14 09:02:04;;;;;;;9.50;5.18;;;;;;;;;;5104883;27;20386;-74
2022/04/14 09:04:29;;;;;;;8.80;5.50;;;;;;;;;;5123208;27;20225;-74
2022/04/14 09:06:54;;;;;;;9.82;6.25;;;;;;;;;;5121734;27;20015;-74
2022/04/14 09:09:20;;;;;;;10.63;5.85;;;;;;;;;;5121097;27;20019;-74
2022/04/14 09:11:45;;;;;;;11.60;6.07;;;;;;;;;;5118724;27;20018;-74
2022/04/14 09:14:11;;;;;;;6.90;5.28;;;;;;;;;;5122330;27;20080;-74
2022/04/14 09:16:37;;;;;;;6.07;4.90;;;;;;;;;;5102722;27;20031;-74
2022/04/14 09:19:03;;;;;;;12.00;6.93;;;;;;;;;;5120523;27;20389;-73
2022/04/14 09:21:28;;;;;;;10.88;6.70;;;;;;;;;;5100338;27;20047;-73
2022/04/14 09:23:53;;;;;;;10.80;6.55;;;;;;;;;;5102683;28;20054;-73
2022/04/14 09:26:23;;;;;;;10.13;7.00;;;;;;;;;;5084369;27;20023;-74
2022/04/14 09:29:03;;;;;;;9.95;6.50;;;;;;;;;;5121985;27;20091;-72
2022/04/14 09:31:28;;;;;;;11.55;8.27;;;;;;;;;;5119031;27;20012;-73
2022/04/14 09:33:54;;;;;;;11.00;6.72;;;;;;;;;;5105470;27;20049;-74
2022/04/14 09:36:20;;;;;;;13.73;7.78;;;;;;;;;;5120133;27;20035;-74
2022/04/14 09:38:52;;;;;;;9.93;6.75;;;;;;;;;;5104956;28;20027;-74
2022/04/14 09:41:28;;;;;;;11.85;6.80;;;;;;;;;;5112479;27;20102;-74
2022/04/14 09:43:54;;;;;;;9.63;6.80;;;;;;;;;;5101425;28;20015;-72
2022/04/14 09:46:20;;;;;;;11.93;6.90;;;;;;;;;;5102177;28;20118;-73
2022/04/14 09:49:00;;;;;;;10.20;6.57;;;;;;;;;;5107138;27;20110;-74
2022/04/14 09:51:26;;;;;;;12.18;7.47;;;;;;;;;;5124083;27;20102;-72
2022/04/14 09:54:01;;;;;;;7.55;6.40;;;;;;;;;;5126540;27;20098;-74
2022/04/14 09:56:37;;;;;;;10.20;7.40;;;;;;;;;;5107565;27;20051;-73
2022/04/14 09:59:07;;;;;;;11.90;7.03;;;;;;;;;;5104657;28;20066;-74
2022/04/14 10:01:32;;;;;;;8.68;6.65;;;;;;;;;;5121872;27;20474;-74
2022/04/14 10:03:57;;;;;;;10.73;6.72;;;;;;;;;;5086743;28;20038;-73
2022/04/14 10:06:23;;;;;;;12.73;6.40;;;;;;;;;;5108782;28;20119;-74
2022/04/14 10:08:48;;;;;;;10.43;7.32;;;;;;;;;;5127740;27;20038;-73
2022/04/14 10:11:14;;;;;;;11.95;6.93;;;;;;;;;;5103315;27;20111;-73
2022/04/14 10:13:40;;;;;;;11.57;8.02;;;;;;;;;;5084861;28;20521;-74
2022/04/14 10:16:07;;;;;;;11.07;7.18;;;;;;;;;;5107579;28;20031;-73
2022/04/14 10:18:32;;;;;;;11.55;8.15;;;;;;;;;;5110349;27;20019;-74
2022/04/14 10:20:57;;;;;;;9.52;7.75;;;;;;;;;;5120009;27;20296;-74
2022/04/14 10:23:25;;;;;;;13.02;7.50;;;;;;;;;;5112237;27;20054;-73
2022/04/14 10:25:51;;;;;;;11.15;7.53;;;;;;;;;;5103000;28;20572;-73
2022/04/14 10:28:17;;;;;;;11.82;7.90;;;;;;;;;;5122779;27;20023;-74
2022/04/14 10:30:46;;;;;;;11.18;8.18;;;;;;;;;;5109067;27;20412;-74
2022/04/14 10:33:12;;;;;;;12.88;8.32;;;;;;;;;;5128381;27;20076;-74
2022/04/14 10:35:37;;;;;;;17.50;10.20;;;;;;;;;;5124113;27;20027;-74
2022/04/14 10:38:09;;;;;;;13.88;8.60;;;;;;;;;;5121797;27;20040;-75
2022/04/14 10:40:36;;;;;;;8.93;7.10;;;;;;;;;;5100947;28;20342;-73
2022/04/14 10:43:02;;;;;;;13.63;8.88;;;;;;;;;;5099255;27;20110;-76
2022/04/14 10:45:27;;;;;;;15.23;8.68;;;;;;;;;;5100244;28;20449;-73
2022/04/14 10:47:54;;;;;;;13.55;8.98;;;;;;;;;;5105618;28;20038;-74
2022/04/14 10:50:23;;;;;;;13.15;9.23;;;;;;;;;;5106287;28;20015;-74
2022/04/14 10:53:04;;;;;;;15.65;8.55;;;;;;;;;;5103476;28;20019;-73
2022/04/14 10:55:36;;;;;;;13.70;10.25;;;;;;;;;;5108984;27;20441;-72
2022/04/14 10:58:02;;;;;;;12.43;9.23;;;;;;;;;;5102091;27;20038;-74
2022/04/14 11:00:35;;;;;;;18.00;10.00;;;;;;;;;;5103833;27;20568;-73
2022/04/14 11:03:05;;;;;;;12.23;8.45;;;;;;;;;;5107262;27;20613;-72
2022/04/14 11:05:46;;;;;;;13.23;8.55;;;;;;;;;;5107763;27;20067;-74
2022/04/14 11:08:37;;;;;;;11.65;8.70;;;;;;;;;;5124022;27;20054;-73
2022/04/14 11:11:10;;;;;;;13.30;7.90;;;;;;;;;;5137166;27;20368;-75
2022/04/14 11:13:35;;;;;;;;;;;;;;;;;;5143279;27;20038;-73
2022/04/14 11:16:23;;;;;;;11.73;7.57;;;;;;;;;;5128361;27;19961;-73
2022/04/14 11:19:08;;;;;;;10.50;7.30;;;;;;;;;;5126188;27;20087;-72
2022/04/14 11:21:34;;;;;;;10.85;7.25;;;;;;;;;;5108287;27;20125;-73
2022/04/14 11:24:01;;;;;;;12.00;8.20;;;;;;;;;;5125259;27;20114;-73
2022/04/14 11:26:35;;;;;;;9.23;7.43;;;;;;;;;;5100392;27;20027;-73
2022/04/14 11:29:01;;;;;;;11.13;7.13;;;;;;;;;;5102826;27;20015;-72
2022/04/14 11:31:27;;;;;;;8.30;6.40;;;;;;;;;;5122971;27;20023;-72
2022/04/14 11:33:55;;;;;;;9.80;7.65;;;;;;;;;;5103352;27;20365;-73
2022/04/14 11:36:22;;;;;;;9.75;6.05;;;;;;;;;;5106106;27;20030;-72
2022/04/14 11:38:57;;;;;;;7.63;5.47;;;;;;;;;;5117096;27;20045;-73
2022/04/14 11:41:28;;;;;;;6.35;4.72;;;;;;;;;;5141348;27;20011;-73
2022/04/14 11:43:54;;;;;;;8.32;5.80;;;;;;;;;;5125705;27;20026;-72
2022/04/14 11:46:22;;;;;;;8.43;5.50;;;;;;;;;;5145855;27;20379;-73
2022/04/14 11:48:48;;;;;;;7.63;4.82;;;;;;;;;;5127279;27;20137;-73
2022/04/14 11:51:15;;;;;;;7.13;5.40;;;;;;;;;;5111343;27;20052;-73
2022/04/14 11:53:40;;;;;;;10.63;5.40;;;;;;;;;;5143893;27;20018;-74
2022/04/14 11:56:14;;;;;;;7.32;4.80;;;;;;;;;;5130812;27;20027;-72
2022/04/14 11:58:39;;;;;;;10.88;6.25;;;;;;;;;;5125225;27;20066;-75
2022/04/14 12:01:06;;;;;;;7.57;4.90;;;;;;;;;;5127423;27;20457;-74
2022/04/14 12:03:31;;;;;;;9.77;5.85;;;;;;;;;;5144382;27;20067;-74
2022/04/14 12:06:02;;;;;;;10.15;7.00;;;;;;;;;;5127830;27;20160;-73
2022/04/14 12:08:28;;;;;;;7.43;5.80;;;;;;;;;;5145319;27;20014;-75
2022/04/14 12:10:53;;;;;;;7.03;5.07;;;;;;;;;;5125431;27;20026;-73
2022/04/14 12:13:21;;;;;;;6.00;4.95;;;;;;;;;;5126114;27;20128;-73
2022/04/14 12:15:59;;;;;;;10.10;6.40;;;;;;;;;;5115244;27;20038;-74
2022/04/14 12:18:24;;;;;;;8.52;5.82;;;;;;;;;;5129684;27;20155;-74
2022/04/14 12:20:49;;;;;;;9.73;6.95;;;;;;;;;;5143810;27;20523;-74
2022/04/14 12:23:15;;;;;;;10.07;7.57;;;;;;;;;;5146814;27;20027;-74
2022/04/14 12:25:41;;;;;;;9.98;7.93;;;;;;;;;;5124594;27;20037;-74
2022/04/14 12:28:06;;;;;;;13.35;7.57;;;;;;;;;;5122829;27;20033;-73
2022/04/14 12:30:32;;;;;;;11.90;8.18;;;;;;;;;;5125918;27;20312;-73
2022/04/14 12:33:01;;;;;;;13.80;8.77;;;;;;;;;;5112783;27;20015;-74
2022/04/14 12:35:33;;;;;;;12.35;8.43;;;;;;;;;;5127407;27;20507;-74
2022/04/14 12:38:17;;;;;;;12.52;8.45;;;;;;;;;;5122161;27;20067;-71
2022/04/14 12:40:59;;;;;;;11.80;8.88;;;;;;;;;;5120277;27;20031;-73
2022/04/14 12:43:31;;;;;;;12.73;8.52;;;;;;;;;;5122090;27;20015;-74
2022/04/14 12:45:57;;;;;;;10.82;8.32;;;;;;;;;;5104062;27;20025;-75
2022/04/14 12:48:34;;;;;;;14.65;9.38;;;;;;;;;;5123229;27;20015;-76
2022/04/14 12:50:59;;;;;;;11.27;7.93;;;;;;;;;;5105009;27;20121;-75
2022/04/14 12:53:25;;;;;;;16.73;9.23;;;;;;;;;;5136634;27;20128;-74
2022/04/14 12:55:51;;;;;;;11.80;8.82;;;;;;;;;;5138528;27;20018;-73
2022/04/14 12:58:16;;;;;;;20.05;12.25;;;;;;;;;;5120575;27;20442;-73
2022/04/14 13:00:43;;;;;;;37.75;20.08;;;;;;;;;;5121116;27;20019;-73
2022/04/14 13:03:14;;;;;;;55.90;29.08;;;;;;;;;;5122231;27;20058;-76
2022/04/14 13:05:40;;;;;;;48.83;23.85;;;;;;;;;;5119708;27;20031;-74
2022/04/14 13:08:06;;;;;;;83.15;39.70;;;;;;;;;;5121384;27;20027;-75
2022/04/14 13:10:36;;;;;;;21.75;14.13;;;;;;;;;;5120489;27;20026;-74
2022/04/14 13:13:02;;;;;;;16.35;12.30;;;;;;;;;;5117609;27;20373;-75
2022/04/14 13:15:28;;;;;;;17.90;12.10;;;;;;;;;;5122174;27;20034;-73
2022/04/14 13:17:55;;;;;;;15.80;12.48;;;;;;;;;;5120412;27;20784;-74
2022/04/14 13:20:21;;;;;;;25.27;13.13;;;;;;;;;;5122983;27;20023;-74
2022/04/14 13:22:48;;;;;;;26.30;14.10;;;;;;;;;;5117257;27;20148;-75
2022/04/14 13:25:14;;;;;;;67.30;23.65;;;;;;;;;;5118992;27;20027;-75
2022/04/14 13:27:39;;;;;;;122.65;47.30;;;;;;;;;;5097158;28;20015;-74
2022/04/14 13:30:05;;;;;;;45.92;24.05;;;;;;;;;;5102217;28;20084;-75
2022/04/14 13:32:32;;;;;;;18.80;12.68;;;;;;;;;;5098932;28;20042;-75
2022/04/14 13:34:57;;;;;;;17.27;14.77;;;;;;;;;;5101858;27;20559;-75
2022/04/14 13:37:23;;;;;;;17.83;14.80;;;;;;;;;;5118942;27;20031;-76
2022/04/14 13:39:48;;;;;;;18.80;14.27;;;;;;;;;;5120693;27;20015;-71
2022/04/14 13:42:14;;;;;;;16.85;14.07;;;;;;;;;;5118140;27;20521;-72
2022/04/14 13:44:41;;;;;;;17.98;13.95;;;;;;;;;;5120231;27;20068;-73
2022/04/14 13:47:06;;;;;;;15.93;11.15;;;;;;;;;;5122136;27;20015;-74
2022/04/14 13:49:32;;;;;;;16.23;12.57;;;;;;;;;;5122721;27;20056;-74
2022/04/14 13:51:57;;;;;;;15.32;12.77;;;;;;;;;;5109262;28;20337;-74
2022/04/14 13:54:22;;;;;;;14.60;11.25;;;;;;;;;;5085812;28;20039;-73
2022/04/14 13:56:48;;;;;;;15.25;13.20;;;;;;;;;;5110231;27;20027;-75
2022/04/14 13:59:13;;;;;;;15.18;11.70;;;;;;;;;;5100730;28;20046;-74
2022/04/14 14:01:39;;;;;;;13.25;11.52;;;;;;;;;;5083224;28;20028;-74
2022/04/14 14:04:04;;;;;;;13.68;11.60;;;;;;;;;;5084782;28;20102;-75
2022/04/14 14:06:30;;;;;;;14.00;12.48;;;;;;;;;;5102893;28;20110;-75
2022/04/14 14:08:55;;;;;;;15.32;12.52;;;;;;;;;;5100474;28;20214;-73
2022/04/14 14:11:20;;;;;;;16.05;12.70;;;;;;;;;;5096579;28;20020;-76
2022/04/14 14:13:46;;;;;;;17.02;13.65;;;;;;;;;;5098330;28;20454;-75
2022/04/14 14:16:11;;;;;;;15.15;12.52;;;;;;;;;;5101321;28;20470;-75
2022/04/14 14:18:37;;;;;;;18.25;14.38;;;;;;;;;;5103151;28;20050;-76
2022/04/14 14:21:03;;;;;;;20.60;16.77;;;;;;;;;;5100133;28;20065;-75
2022/04/14 14:23:28;;;;;;;23.83;18.10;;;;;;;;;;5101777;28;20024;-78
2022/04/14 14:25:54;;;;;;;21.50;19.20;;;;;;;;;;5108386;27;20354;-76